createdAt,value
2019-03-12T00:02:19.462Z,2.66
2019-03-12T00:04:48.945Z,2.39
2019-03-12T00:07:18.244Z,2.14
2019-03-12T00:09:47.480Z,2.05
2019-03-12T00:12:16.977Z,2.22
2019-03-12T00:14:46.217Z,2.17
2019-03-12T00:17:15.792Z,2.10
2019-03-12T00:19:45.027Z,2.19
2019-03-12T00:22:14.248Z,2.38
2019-03-12T00:24:43.440Z,2.56
2019-03-12T00:27:13.512Z,2.59
2019-03-12T00:29:42.743Z,2.44
2019-03-12T00:32:12.310Z,2.19
2019-03-12T00:34:42.167Z,2.10
2019-03-12T00:37:13.691Z,2.23
2019-03-12T00:39:42.895Z,2.07
2019-03-12T00:42:12.169Z,2.25
2019-03-12T00:44:41.407Z,2.29
2019-03-12T00:47:10.874Z,1.92
2019-03-12T00:49:40.395Z,1.78
2019-03-12T00:52:28.816Z,1.70
2019-03-12T00:57:53.731Z,2.02
2019-03-12T01:00:23.001Z,1.97
2019-03-12T01:02:52.535Z,1.95
2019-03-12T01:05:22.054Z,2.14
2019-03-12T01:07:51.613Z,2.24
2019-03-12T01:10:20.822Z,2.25
2019-03-12T01:12:50.050Z,2.23
2019-03-12T01:15:19.542Z,2.13
2019-03-12T01:17:48.756Z,2.10
2019-03-12T01:20:17.957Z,2.15
2019-03-12T01:22:47.185Z,2.27
2019-03-12T01:25:16.461Z,2.35
2019-03-12T01:27:45.953Z,2.42
2019-03-12T01:30:55.358Z,2.49
2019-03-12T01:33:24.858Z,2.56
2019-03-12T01:35:54.122Z,2.65
2019-03-12T01:38:23.333Z,2.69
2019-03-12T01:40:52.523Z,2.72
2019-03-12T01:43:21.736Z,2.78
2019-03-12T01:45:50.956Z,2.88
2019-03-12T01:48:20.208Z,2.96
2019-03-12T01:50:49.393Z,3.00
2019-03-12T01:53:18.639Z,3.03
2019-03-12T01:55:47.838Z,3.06
2019-03-12T01:58:17.051Z,3.03
2019-03-12T02:00:46.277Z,2.92
2019-03-12T02:03:15.513Z,2.80
2019-03-12T02:05:44.733Z,2.72
2019-03-12T02:08:13.968Z,2.68
2019-03-12T02:10:43.177Z,2.68
2019-03-12T02:13:12.425Z,2.66
2019-03-12T02:15:41.880Z,2.69
2019-03-12T02:18:11.111Z,2.67
2019-03-12T02:20:40.305Z,2.61
2019-03-12T02:23:09.521Z,2.52
2019-03-12T02:25:38.715Z,2.45
2019-03-12T02:28:08.224Z,2.47
2019-03-12T02:30:37.435Z,2.48
2019-03-12T02:33:06.747Z,2.54
2019-03-12T02:35:35.954Z,2.52
2019-03-12T02:38:05.241Z,2.49
2019-03-12T02:40:34.409Z,2.42
2019-03-12T02:43:03.621Z,2.37
2019-03-12T02:45:32.839Z,2.29
2019-03-12T02:48:02.070Z,2.22
2019-03-12T02:50:31.249Z,2.19
2019-03-12T02:53:00.475Z,2.15
2019-03-12T02:55:29.667Z,2.14
2019-03-12T02:57:58.881Z,2.06
2019-03-12T03:00:28.063Z,2.12
2019-03-12T03:02:57.274Z,2.09
2019-03-12T03:05:26.610Z,2.10
2019-03-12T03:08:01.556Z,2.13
2019-03-12T03:10:30.817Z,2.14
2019-03-12T03:13:00.049Z,2.15
2019-03-12T03:18:23.736Z,2.20
2019-03-12T03:20:52.933Z,2.38
2019-03-12T03:23:22.154Z,2.46
2019-03-12T03:25:51.334Z,2.53
2019-03-12T03:28:20.884Z,2.61
2019-03-12T03:30:50.108Z,2.72
2019-03-12T03:33:19.322Z,2.79
2019-03-12T03:35:48.524Z,2.81
2019-03-12T03:38:17.720Z,2.85
2019-03-12T03:40:46.941Z,2.93
2019-03-12T03:43:16.149Z,3.03
2019-03-12T03:45:45.396Z,3.15
2019-03-12T03:48:14.616Z,3.30
2019-03-12T03:50:43.869Z,3.37
2019-03-12T03:53:13.065Z,3.42
2019-03-12T03:55:42.302Z,3.46
2019-03-12T03:58:11.521Z,3.49
2019-03-12T04:00:40.753Z,3.37
2019-03-12T04:03:09.959Z,3.26
2019-03-12T04:05:39.205Z,3.24
2019-03-12T04:08:08.401Z,3.21
2019-03-12T04:10:37.636Z,3.23
2019-03-12T04:13:06.838Z,3.19
2019-03-12T04:15:36.339Z,3.15
2019-03-12T04:18:05.520Z,3.14
2019-03-12T04:20:34.748Z,3.16
2019-03-12T04:23:03.965Z,3.14
2019-03-12T04:25:33.196Z,3.12
2019-03-12T04:28:02.415Z,3.08
2019-03-12T04:30:31.641Z,3.05
2019-03-12T04:33:00.837Z,3.04
2019-03-12T04:35:30.169Z,2.99
2019-03-12T04:37:59.442Z,3.03
2019-03-12T04:40:28.633Z,3.07
2019-03-12T04:42:57.835Z,3.19
2019-03-12T04:45:27.094Z,3.24
2019-03-12T04:47:56.277Z,3.27
2019-03-12T04:50:25.502Z,3.26
2019-03-12T04:52:54.701Z,3.26
2019-03-12T04:55:23.926Z,3.28
2019-03-12T04:57:53.120Z,3.36
2019-03-12T05:00:22.348Z,3.38
2019-03-12T05:02:51.561Z,3.45
2019-03-12T05:05:20.825Z,3.45
2019-03-12T05:07:50.037Z,3.45
2019-03-12T05:10:19.292Z,3.42
2019-03-12T05:12:48.503Z,3.46
2019-03-12T05:15:17.734Z,3.44
2019-03-12T05:17:47.466Z,3.36
2019-03-12T05:20:16.690Z,3.33
2019-03-12T05:22:46.056Z,3.30
2019-03-12T05:25:15.439Z,3.33
2019-03-12T05:27:44.777Z,3.36
2019-03-12T05:30:15.707Z,3.46
2019-03-12T05:32:45.218Z,3.52
2019-03-12T05:35:14.531Z,3.57
2019-03-12T05:37:43.887Z,3.62
2019-03-12T05:40:13.117Z,3.68
2019-03-12T05:42:42.353Z,3.67
2019-03-12T05:45:12.174Z,3.73
2019-03-12T05:47:41.412Z,3.74
2019-03-12T05:50:11.748Z,3.79
2019-03-12T05:52:41.349Z,3.89
2019-03-12T05:55:50.012Z,3.88
2019-03-12T05:58:19.240Z,3.86
2019-03-12T06:03:38.290Z,3.79
2019-03-12T06:06:07.525Z,3.82
2019-03-12T06:08:36.762Z,3.79
2019-03-12T06:11:06.390Z,3.75
2019-03-12T06:13:35.895Z,3.79
2019-03-12T06:16:05.118Z,3.74
2019-03-12T06:18:34.622Z,3.77
2019-03-12T06:21:03.817Z,3.82
2019-03-12T06:23:33.067Z,3.89
2019-03-12T06:26:02.268Z,3.94
2019-03-12T06:28:31.519Z,3.97
2019-03-12T06:31:20.688Z,3.99
2019-03-12T06:34:02.711Z,4.01
2019-03-12T06:36:50.829Z,4.07
2019-03-12T06:39:27.693Z,4.14
2019-03-12T06:42:54.229Z,4.17
2019-03-12T06:45:42.399Z,4.21
2019-03-12T06:48:17.374Z,4.27
2019-03-12T06:51:05.476Z,4.30
2019-03-12T06:53:53.642Z,4.38
2019-03-12T06:56:41.779Z,4.47
2019-03-12T06:59:29.954Z,4.58
2019-03-12T07:02:06.950Z,4.66
2019-03-12T07:04:55.122Z,4.74
2019-03-12T07:07:45.926Z,4.78
2019-03-12T07:10:33.832Z,4.81
2019-03-12T07:13:21.980Z,4.86
2019-03-12T07:16:10.149Z,4.87
2019-03-12T07:18:58.344Z,4.98
2019-03-12T07:21:46.456Z,4.98
2019-03-12T07:24:34.597Z,5.12
2019-03-12T07:27:42.157Z,5.26
2019-03-12T07:30:30.432Z,5.32
2019-03-12T07:33:18.614Z,5.43
2019-03-12T07:36:06.746Z,5.63
2019-03-12T07:38:44.155Z,5.80
2019-03-12T07:41:32.989Z,5.92
2019-03-12T07:44:12.467Z,6.02
2019-03-12T07:47:00.617Z,5.92
2019-03-12T07:49:48.857Z,5.99
2019-03-12T07:52:37.003Z,5.99
2019-03-12T07:55:25.257Z,6.02
2019-03-12T07:58:13.391Z,6.05
2019-03-12T08:01:00.949Z,6.13
2019-03-12T08:03:49.108Z,6.14
2019-03-12T08:06:37.333Z,6.25
2019-03-12T08:09:46.570Z,6.32
2019-03-12T08:12:34.195Z,6.43
2019-03-12T08:18:19.253Z,6.33
2019-03-12T08:21:07.894Z,6.45
2019-03-12T08:23:43.485Z,6.37
2019-03-12T08:26:32.439Z,6.43
2019-03-12T08:29:07.365Z,6.67
2019-03-12T08:40:13.108Z,6.84
2019-03-12T08:45:52.399Z,6.78
2019-03-12T08:48:40.544Z,6.87
2019-03-12T08:51:28.812Z,6.90
2019-03-12T08:54:16.943Z,6.88
2019-03-12T08:57:05.838Z,7.10
2019-03-12T09:02:50.618Z,7.06
2019-03-12T09:05:38.801Z,7.42
2019-03-12T09:08:46.318Z,7.33
2019-03-12T09:11:34.528Z,7.42
2019-03-12T09:14:22.657Z,7.23
2019-03-12T09:17:11.140Z,7.35
2019-03-12T09:19:59.373Z,7.57
2019-03-12T09:22:43.429Z,7.51
2019-03-12T09:25:32.174Z,7.75
2019-03-12T09:28:20.431Z,7.56
2019-03-12T09:31:08.614Z,7.46
2019-03-12T09:33:57.347Z,7.47
2019-03-12T09:36:45.591Z,7.63
2019-03-12T09:39:33.845Z,7.56
2019-03-12T09:42:22.306Z,7.49
2019-03-12T09:45:10.947Z,7.50
2019-03-12T09:48:00.799Z,7.18
2019-03-12T09:50:49.235Z,7.08
2019-03-12T09:53:58.142Z,7.04
2019-03-12T09:57:05.684Z,6.97
2019-03-12T09:59:53.891Z,7.05
2019-03-12T10:02:43.010Z,6.99
2019-03-12T10:08:41.859Z,7.16
2019-03-12T10:14:58.584Z,7.14
2019-03-12T10:18:06.846Z,7.18
2019-03-12T10:21:04.337Z,7.28
2019-03-12T10:26:48.265Z,7.37
2019-03-12T10:32:26.244Z,7.83
2019-03-12T10:35:03.158Z,7.76
2019-03-12T10:37:51.322Z,7.71
2019-03-12T10:40:39.816Z,7.75
2019-03-12T10:43:28.303Z,7.72
2019-03-12T10:46:04.364Z,7.98
2019-03-12T10:48:35.327Z,7.94
2019-03-12T10:51:13.697Z,7.92
2019-03-12T10:53:44.162Z,7.92
2019-03-12T10:56:13.475Z,8.13
2019-03-12T10:58:44.350Z,8.19
2019-03-12T11:01:15.295Z,8.24
2019-03-12T11:03:48.350Z,8.25
2019-03-12T11:06:18.936Z,8.40
2019-03-12T11:23:06.365Z,8.91
2019-03-12T11:28:30.618Z,8.89
2019-03-12T11:31:20.018Z,8.91
2019-03-12T11:36:50.551Z,9.14
2019-03-12T11:39:20.081Z,9.03
2019-03-12T11:41:49.499Z,8.91
2019-03-12T11:48:49.144Z,9.17
2019-03-12T11:55:04.123Z,9.08
2019-03-12T11:57:33.451Z,9.45
2019-03-12T12:00:40.601Z,9.68
2019-03-12T12:12:43.534Z,9.98
2019-03-12T12:15:13.469Z,9.89
2019-03-12T12:18:15.917Z,9.94
2019-03-12T12:34:16.693Z,9.62
2019-03-12T12:37:28.812Z,9.77
2019-03-12T12:39:58.146Z,9.95
2019-03-12T12:47:41.096Z,10.57
2019-03-12T13:12:38.429Z,10.50
2019-03-12T13:23:15.192Z,10.48
2019-03-12T13:25:44.793Z,10.45
2019-03-12T13:28:14.226Z,10.39
2019-03-12T13:52:12.041Z,9.86
2019-03-12T13:54:43.428Z,9.90
2019-03-12T13:57:12.890Z,10.11
2019-03-12T13:59:42.271Z,10.29
2019-03-12T14:02:12.065Z,10.18
2019-03-12T14:04:41.379Z,9.92
2019-03-12T14:10:00.419Z,10.08
2019-03-12T14:12:29.876Z,9.93
2019-03-12T14:14:59.158Z,10.02
2019-03-12T14:17:29.092Z,9.98
2019-03-12T14:20:37.758Z,9.88
2019-03-12T14:23:07.111Z,10.00
2019-03-12T14:28:32.113Z,9.99
2019-03-12T14:31:01.368Z,10.01
2019-03-12T14:33:30.889Z,9.98
2019-03-12T14:36:00.272Z,9.99
2019-03-12T14:38:29.516Z,10.06
2019-03-12T14:40:59.128Z,9.98
2019-03-12T14:43:28.564Z,9.95
2019-03-12T14:45:57.769Z,9.90
2019-03-12T14:54:23.273Z,9.89
2019-03-12T14:56:52.514Z,9.91
2019-03-12T14:59:21.772Z,9.85
2019-03-12T15:01:51.435Z,9.78
2019-03-12T15:04:20.682Z,9.80
2019-03-12T15:06:50.114Z,9.82
2019-03-12T15:09:19.603Z,9.76
2019-03-12T15:14:45.241Z,9.72
2019-03-12T15:17:14.483Z,9.75
2019-03-12T15:19:43.719Z,9.78
2019-03-12T15:22:13.020Z,9.85
2019-03-12T15:24:42.229Z,9.84
2019-03-12T15:27:11.478Z,9.82
2019-03-12T15:29:40.683Z,9.86
2019-03-12T15:32:10.258Z,9.85
2019-03-12T15:34:39.511Z,9.77
2019-03-12T15:37:08.810Z,9.66
2019-03-12T15:39:38.111Z,9.61
2019-03-12T15:42:07.342Z,9.58
2019-03-12T15:44:36.619Z,9.54
2019-03-12T15:47:08.820Z,9.54
2019-03-12T15:49:37.877Z,9.53
2019-03-12T15:52:08.735Z,9.42
2019-03-12T15:54:38.068Z,9.36
2019-03-12T15:57:07.472Z,9.51
2019-03-12T15:59:37.587Z,9.48
2019-03-12T16:02:06.791Z,9.43
2019-03-12T16:04:36.049Z,9.40
2019-03-12T16:07:05.291Z,9.40
2019-03-12T16:09:34.607Z,9.35
2019-03-12T16:12:03.849Z,9.28
2019-03-12T16:14:33.128Z,9.27
2019-03-12T16:17:02.316Z,9.34
2019-03-12T16:19:31.627Z,9.31
2019-03-12T16:22:00.935Z,9.31
2019-03-12T16:24:30.658Z,9.21
2019-03-12T16:27:03.141Z,9.22
2019-03-12T16:32:07.067Z,9.11
2019-03-12T16:34:55.497Z,9.12
2019-03-12T16:37:26.659Z,9.27
2019-03-12T16:40:14.949Z,9.25
2019-03-12T16:43:03.536Z,9.23
2019-03-12T16:45:32.822Z,9.25
2019-03-12T16:48:02.079Z,9.14
2019-03-12T16:51:16.414Z,9.16
2019-03-12T16:53:45.797Z,9.19
2019-03-12T16:56:15.072Z,9.09
2019-03-12T16:58:44.421Z,9.09
2019-03-12T17:01:13.729Z,9.05
2019-03-12T17:03:43.023Z,9.06
2019-03-12T17:06:13.241Z,9.04
2019-03-12T17:11:53.869Z,9.07
2019-03-12T17:17:15.331Z,9.08
2019-03-12T17:19:44.664Z,9.06
2019-03-12T17:22:13.931Z,9.15
2019-03-12T17:24:43.597Z,9.26
2019-03-12T17:27:12.916Z,9.12
2019-03-12T17:32:30.457Z,9.21
2019-03-12T17:35:20.499Z,9.21
2019-03-12T17:37:49.817Z,9.14
2019-03-12T17:40:20.181Z,9.04
2019-03-12T17:42:49.470Z,9.08
2019-03-12T17:45:20.003Z,9.23
2019-03-12T17:47:49.303Z,9.15
2019-03-12T17:50:18.540Z,9.02
2019-03-12T17:53:07.462Z,9.10
2019-03-12T17:55:36.690Z,8.99
2019-03-12T17:58:06.538Z,8.90
2019-03-12T18:03:25.882Z,8.86
2019-03-12T18:05:55.276Z,9.00
2019-03-12T18:08:24.679Z,8.84
2019-03-12T18:10:54.462Z,8.91
2019-03-12T18:13:43.662Z,8.84
2019-03-12T18:16:13.048Z,8.80
2019-03-12T18:18:44.434Z,9.10
2019-03-12T18:24:47.761Z,9.22
2019-03-12T18:27:17.150Z,9.09
2019-03-12T18:29:49.100Z,9.03
2019-03-12T18:37:50.860Z,8.84
2019-03-12T18:40:20.370Z,8.79
2019-03-12T18:42:49.873Z,8.84
2019-03-12T18:45:44.156Z,8.69
2019-03-12T18:48:13.662Z,8.80
2019-03-12T18:50:42.892Z,8.99
2019-03-12T18:53:12.205Z,8.95
2019-03-12T18:56:02.184Z,9.23
2019-03-12T18:58:31.436Z,9.28
2019-03-12T19:01:12.320Z,9.24
2019-03-12T19:03:41.569Z,9.17
2019-03-12T19:06:10.834Z,9.28
2019-03-12T19:08:59.455Z,9.32
2019-03-12T19:11:28.640Z,9.14
2019-03-12T19:13:58.302Z,9.16
2019-03-12T19:16:27.896Z,9.28
2019-03-12T19:18:57.415Z,9.27
2019-03-12T19:21:26.742Z,9.34
2019-03-12T19:23:56.001Z,9.32
2019-03-12T19:26:25.295Z,9.39
2019-03-12T19:28:54.572Z,9.37
2019-03-12T19:31:42.719Z,9.46
2019-03-12T19:36:51.572Z,9.57
2019-03-12T19:39:21.258Z,9.57
2019-03-12T19:41:50.856Z,9.47
2019-03-12T19:44:20.105Z,9.50
2019-03-12T19:46:49.387Z,9.66
2019-03-12T19:49:18.697Z,9.61
2019-03-12T19:51:47.925Z,9.71
2019-03-12T19:54:17.636Z,9.66
2019-03-12T19:56:46.952Z,9.72
2019-03-12T19:59:16.674Z,9.68
2019-03-12T20:01:46.733Z,9.75
2019-03-12T20:04:16.258Z,9.76
2019-03-12T20:06:45.619Z,9.81
2019-03-12T20:09:56.121Z,9.84
2019-03-12T20:13:03.402Z,9.79
2019-03-12T20:16:11.018Z,9.72
2019-03-12T20:19:18.651Z,9.74
2019-03-12T20:22:35.461Z,9.64
2019-03-12T20:25:42.900Z,9.58
2019-03-12T20:28:50.271Z,9.58
2019-03-12T20:31:57.757Z,9.53
2019-03-12T20:35:05.412Z,9.47
2019-03-12T20:38:13.117Z,9.45
2019-03-12T20:41:20.737Z,9.38
2019-03-12T20:44:28.054Z,9.37
2019-03-12T20:47:35.538Z,9.33
2019-03-12T20:50:42.864Z,9.32
2019-03-12T20:54:00.469Z,9.26
2019-03-12T20:57:07.762Z,9.24
2019-03-12T21:00:15.306Z,9.26
2019-03-12T21:03:24.918Z,9.30
2019-03-12T21:06:40.892Z,9.26
2019-03-12T21:09:48.225Z,9.23
2019-03-12T21:12:57.175Z,9.18
2019-03-12T21:16:04.471Z,8.96
2019-03-12T21:19:12.016Z,8.59
2019-03-12T21:22:19.888Z,8.20
2019-03-12T21:25:27.171Z,7.81
2019-03-12T21:28:53.705Z,7.43
2019-03-12T21:31:23.405Z,7.02
2019-03-12T21:33:52.618Z,6.80
2019-03-12T21:36:22.991Z,6.50
2019-03-12T21:38:52.237Z,6.28
2019-03-12T21:41:21.933Z,6.14
2019-03-12T21:43:51.768Z,6.07
2019-03-12T21:46:21.749Z,5.94
2019-03-12T21:48:51.697Z,5.87
2019-03-12T21:51:20.982Z,5.81
2019-03-12T21:53:50.488Z,5.76
2019-03-12T21:56:38.807Z,5.70
2019-03-12T21:59:08.002Z,5.68
2019-03-12T22:01:37.249Z,5.67
2019-03-12T22:04:06.566Z,5.62
2019-03-12T22:06:35.829Z,5.64
2019-03-12T22:12:17.702Z,5.60
2019-03-12T22:14:47.292Z,5.58
2019-03-12T22:22:46.928Z,5.45
2019-03-12T22:25:16.367Z,5.45
2019-03-12T22:27:45.928Z,5.48
2019-03-12T22:30:18.056Z,5.55
2019-03-12T22:32:47.428Z,5.58
2019-03-12T22:35:16.703Z,5.57
2019-03-12T22:37:45.915Z,5.55
2019-03-12T22:40:15.237Z,5.53
2019-03-12T22:42:44.564Z,5.53
2019-03-12T22:45:16.462Z,5.55
2019-03-12T22:47:46.025Z,5.56
2019-03-12T22:50:15.515Z,5.58
2019-03-12T22:52:48.125Z,5.61
2019-03-12T22:55:17.502Z,5.62
2019-03-12T22:57:47.084Z,5.65
2019-03-12T23:00:55.892Z,5.67
2019-03-12T23:03:25.110Z,5.68
2019-03-12T23:05:54.356Z,5.68
2019-03-12T23:08:42.686Z,5.72
2019-03-12T23:14:20.602Z,5.68
2019-03-12T23:16:50.187Z,5.59
2019-03-12T23:19:19.719Z,5.54
2019-03-12T23:21:48.904Z,5.48
2019-03-12T23:24:18.144Z,5.37
2019-03-12T23:26:47.350Z,5.41
2019-03-12T23:29:16.580Z,5.36
2019-03-12T23:31:46.049Z,5.31
2019-03-12T23:34:15.274Z,5.29
2019-03-12T23:36:44.599Z,5.19
2019-03-12T23:39:16.212Z,5.26
2019-03-12T23:41:45.476Z,5.26
2019-03-12T23:44:14.824Z,5.18
2019-03-12T23:46:44.036Z,5.16
2019-03-12T23:49:13.247Z,5.08
2019-03-12T23:51:42.457Z,5.04
2019-03-12T23:54:51.360Z,5.00
2019-03-12T23:57:20.821Z,4.95
2019-03-12T23:59:50.410Z,4.93
